sensor_id;sensor_type;location;lat;lon;timestamp;pressure;altitude;pressure_sealevel;temperature;humidity
51067;BME280;37112;45.892;-123.962;2024-01-07T03:34:18;101317.32;;;7.04;83.67
51067;BME280;37112;45.892;-123.962;2024-01-07T03:36:29;101340.17;;;7.14;84.49
51067;BME280;37112;45.892;-123.962;2024-01-07T03:38:40;101331.25;;;7.09;81.35
51067;BME280;37112;45.892;-123.962;2024-01-07T03:40:51;101329.20;;;6.98;80.44
51067;BME280;37112;45.892;-123.962;2024-01-07T03:43:01;101320.14;;;6.96;80.76
51067;BME280;37112;45.892;-123.962;2024-01-07T03:45:11;101317.92;;;6.98;80.95
51067;BME280;37112;45.892;-123.962;2024-01-07T03:47:21;101323.30;;;7.00;81.21
51067;BME280;37112;45.892;-123.962;2024-01-07T03:49:31;101318.63;;;7.10;82.83
51067;BME280;37112;45.892;-123.962;2024-01-07T03:51:41;101312.04;;;7.31;84.21
51067;BME280;37112;45.892;-123.962;2024-01-07T03:53:52;101301.09;;;7.51;84.58
51067;BME280;37112;45.892;-123.962;2024-01-07T03:56:02;101310.67;;;7.66;83.27
51067;BME280;37112;45.892;-123.962;2024-01-07T03:58:12;101309.69;;;7.75;82.82
51067;BME280;37112;45.892;-123.962;2024-01-07T04:00:22;101323.00;;;7.82;82.42
51067;BME280;37112;45.892;-123.962;2024-01-07T04:02:33;101326.27;;;7.84;82.67
51067;BME280;37112;45.892;-123.962;2024-01-07T04:04:43;101325.04;;;7.80;83.30
51067;BME280;37112;45.892;-123.962;2024-01-07T04:06:53;101320.84;;;7.75;83.65
51067;BME280;37112;45.892;-123.962;2024-01-07T04:09:03;101324.02;;;7.72;84.06
51067;BME280;37112;45.892;-123.962;2024-01-07T04:11:13;101327.66;;;7.73;85.30
51067;BME280;37112;45.892;-123.962;2024-01-07T04:13:23;101326.27;;;7.73;84.05
51067;BME280;37112;45.892;-123.962;2024-01-07T04:15:34;101330.61;;;7.74;83.44
51067;BME280;37112;45.892;-123.962;2024-01-07T04:17:45;101328.98;;;7.79;82.82
51067;BME280;37112;45.892;-123.962;2024-01-07T04:19:55;101332.31;;;7.83;81.25
51067;BME280;37112;45.892;-123.962;2024-01-07T04:22:05;101329.06;;;7.88;82.00
51067;BME280;37112;45.892;-123.962;2024-01-07T04:24:15;101319.64;;;7.93;82.39
51067;BME280;37112;45.892;-123.962;2024-01-07T04:26:26;101317.27;;;7.98;81.90
51067;BME280;37112;45.892;-123.962;2024-01-07T04:28:35;101323.61;;;8.03;82.21
51067;BME280;37112;45.892;-123.962;2024-01-07T04:30:45;101322.39;;;8.06;80.40
51067;BME280;37112;45.892;-123.962;2024-01-07T04:32:57;101317.33;;;8.08;79.73
51067;BME280;37112;45.892;-123.962;2024-01-07T04:35:07;101316.45;;;8.13;78.96
51067;BME280;37112;45.892;-123.962;2024-01-07T04:37:18;101322.48;;;8.15;78.40
51067;BME280;37112;45.892;-123.962;2024-01-07T04:39:29;101320.25;;;8.21;80.01
51067;BME280;37112;45.892;-123.962;2024-01-07T04:41:39;101318.84;;;8.21;78.60
51067;BME280;37112;45.892;-123.962;2024-01-07T04:43:50;101324.55;;;8.13;77.59
51067;BME280;37112;45.892;-123.962;2024-01-07T04:46:00;101327.58;;;8.08;76.54
51067;BME280;37112;45.892;-123.962;2024-01-07T04:48:11;101329.67;;;8.09;75.42
51067;BME280;37112;45.892;-123.962;2024-01-07T04:50:22;101330.06;;;8.13;75.98
51067;BME280;37112;45.892;-123.962;2024-01-07T04:52:32;101331.79;;;8.17;76.45
51067;BME280;37112;45.892;-123.962;2024-01-07T04:54:43;101334.84;;;8.20;76.59
51067;BME280;37112;45.892;-123.962;2024-01-07T04:56:53;101333.02;;;8.21;76.75
51067;BME280;37112;45.892;-123.962;2024-01-07T04:59:03;101340.07;;;8.25;77.12
51067;BME280;37112;45.892;-123.962;2024-01-07T05:01:13;101340.08;;;8.25;76.73
51067;BME280;37112;45.892;-123.962;2024-01-07T05:03:24;101339.44;;;8.27;77.45
51067;BME280;37112;45.892;-123.962;2024-01-07T05:05:35;101346.14;;;8.28;77.63
51067;BME280;37112;45.892;-123.962;2024-01-07T05:07:46;101350.17;;;8.24;74.07
51067;BME280;37112;45.892;-123.962;2024-01-07T05:09:57;101354.84;;;8.23;73.98
51067;BME280;37112;45.892;-123.962;2024-01-07T05:12:08;101351.56;;;8.25;75.23
51067;BME280;37112;45.892;-123.962;2024-01-07T05:14:18;101348.96;;;8.28;75.65
51067;BME280;37112;45.892;-123.962;2024-01-07T05:16:29;101347.31;;;8.29;76.17
51067;BME280;37112;45.892;-123.962;2024-01-07T05:18:38;101347.87;;;8.32;77.69
51067;BME280;37112;45.892;-123.962;2024-01-07T05:20:48;101352.91;;;8.38;79.74
51067;BME280;37112;45.892;-123.962;2024-01-07T05:22:58;101342.91;;;8.40;79.21
51067;BME280;37112;45.892;-123.962;2024-01-07T05:25:09;101351.17;;;8.42;80.14
51067;BME280;37112;45.892;-123.962;2024-01-07T05:27:19;101351.64;;;8.39;78.14
51067;BME280;37112;45.892;-123.962;2024-01-07T05:29:29;101351.34;;;8.37;77.85
51067;BME280;37112;45.892;-123.962;2024-01-07T05:31:40;101350.95;;;8.38;77.73
51067;BME280;37112;45.892;-123.962;2024-01-07T05:33:50;101353.66;;;8.37;76.63
51067;BME280;37112;45.892;-123.962;2024-01-07T05:36:00;101350.61;;;8.34;75.27
51067;BME280;37112;45.892;-123.962;2024-01-07T05:38:10;101345.48;;;8.34;75.88
51067;BME280;37112;45.892;-123.962;2024-01-07T05:40:20;101346.93;;;8.37;76.32
51067;BME280;37112;45.892;-123.962;2024-01-07T05:42:30;101349.30;;;8.40;77.01
51067;BME280;37112;45.892;-123.962;2024-01-07T05:44:40;101346.56;;;8.42;76.50
51067;BME280;37112;45.892;-123.962;2024-01-07T05:46:50;101347.65;;;8.45;77.24
51067;BME280;37112;45.892;-123.962;2024-01-07T05:49:01;101355.70;;;8.50;79.76
51067;BME280;37112;45.892;-123.962;2024-01-07T05:51:11;101359.34;;;8.55;80.38
51067;BME280;37112;45.892;-123.962;2024-01-07T05:53:22;101364.54;;;8.54;79.70
51067;BME280;37112;45.892;-123.962;2024-01-07T05:55:33;101360.72;;;8.52;79.60
51067;BME280;37112;45.892;-123.962;2024-01-07T05:57:44;101361.61;;;8.52;79.27
51067;BME280;37112;45.892;-123.962;2024-01-07T05:59:55;101366.38;;;8.52;80.00
51067;BME280;37112;45.892;-123.962;2024-01-07T06:02:05;101370.60;;;8.49;78.88
51067;BME280;37112;45.892;-123.962;2024-01-07T06:04:15;101369.23;;;8.41;76.00
51067;BME280;37112;45.892;-123.962;2024-01-07T06:06:26;101366.42;;;8.40;76.87
51067;BME280;37112;45.892;-123.962;2024-01-07T06:08:36;101369.80;;;8.40;76.06
51067;BME280;37112;45.892;-123.962;2024-01-07T06:10:46;101369.55;;;8.42;76.80
51067;BME280;37112;45.892;-123.962;2024-01-07T06:12:56;101369.18;;;8.42;76.60
51067;BME280;37112;45.892;-123.962;2024-01-07T06:15:08;101366.36;;;8.42;76.31
51067;BME280;37112;45.892;-123.962;2024-01-07T06:17:17;101369.81;;;8.44;76.82
51067;BME280;37112;45.892;-123.962;2024-01-07T06:19:29;101381.04;;;8.46;77.85
51067;BME280;37112;45.892;-123.962;2024-01-07T06:21:39;101386.29;;;8.40;78.03
51067;BME280;37112;45.892;-123.962;2024-01-07T06:23:50;101388.15;;;8.26;78.32
51067;BME280;37112;45.892;-123.962;2024-01-07T06:26:00;101386.39;;;8.15;78.78
51067;BME280;37112;45.892;-123.962;2024-01-07T06:28:10;101380.88;;;8.07;79.35
51067;BME280;37112;45.892;-123.962;2024-01-07T06:30:21;101384.70;;;8.01;79.18
51067;BME280;37112;45.892;-123.962;2024-01-07T06:32:31;101385.39;;;7.98;79.29
51067;BME280;37112;45.892;-123.962;2024-01-07T06:34:42;101395.63;;;7.95;78.28
51067;BME280;37112;45.892;-123.962;2024-01-07T06:36:52;101394.05;;;7.94;78.00
51067;BME280;37112;45.892;-123.962;2024-01-07T06:39:03;101399.19;;;7.98;77.53
51067;BME280;37112;45.892;-123.962;2024-01-07T06:41:13;101394.33;;;7.99;76.53
51067;BME280;37112;45.892;-123.962;2024-01-07T06:43:23;101389.89;;;8.04;77.92
51067;BME280;37112;45.892;-123.962;2024-01-07T06:45:33;101385.31;;;8.07;77.93
51067;BME280;37112;45.892;-123.962;2024-01-07T06:47:44;101396.36;;;8.09;78.24
51067;BME280;37112;45.892;-123.962;2024-01-07T06:49:55;101402.29;;;8.07;78.42
51067;BME280;37112;45.892;-123.962;2024-01-07T06:52:06;101409.10;;;7.97;78.89
51067;BME280;37112;45.892;-123.962;2024-01-07T06:54:16;101405.21;;;7.86;78.39
51067;BME280;37112;45.892;-123.962;2024-01-07T06:56:26;101401.86;;;7.78;78.19
51067;BME280;37112;45.892;-123.962;2024-01-07T06:58:36;101393.92;;;7.70;76.76
51067;BME280;37112;45.892;-123.962;2024-01-07T07:00:47;101411.63;;;7.65;76.99
51067;BME280;37112;45.892;-123.962;2024-01-07T07:02:57;101445.20;;;7.61;77.19
51067;BME280;37112;45.892;-123.962;2024-01-07T07:05:08;101450.16;;;7.53;79.88
51067;BME280;37112;45.892;-123.962;2024-01-07T07:07:19;101441.91;;;7.39;79.62
51067;BME280;37112;45.892;-123.962;2024-01-07T07:09:29;101437.80;;;7.28;80.08
51067;BME280;37112;45.892;-123.962;2024-01-07T07:11:40;101421.27;;;7.22;81.00
51067;BME280;37112;45.892;-123.962;2024-01-07T07:13:51;101412.65;;;7.17;81.13
51067;BME280;37112;45.892;-123.962;2024-01-07T07:16:00;101405.24;;;7.17;81.25
51067;BME280;37112;45.892;-123.962;2024-01-07T07:18:11;101400.72;;;7.19;81.69
51067;BME280;37112;45.892;-123.962;2024-01-07T07:20:21;101408.33;;;7.27;82.58
51067;BME280;37112;45.892;-123.962;2024-01-07T07:22:31;101430.07;;;7.39;84.09
51067;BME280;37112;45.892;-123.962;2024-01-07T07:24:43;101424.20;;;7.44;83.66
51067;BME280;37112;45.892;-123.962;2024-01-07T07:26:53;101420.67;;;7.40;82.85
51067;BME280;37112;45.892;-123.962;2024-01-07T07:29:03;101418.05;;;7.35;83.13
51067;BME280;37112;45.892;-123.962;2024-01-07T07:31:14;101422.87;;;7.30;83.75
51067;BME280;37112;45.892;-123.962;2024-01-07T07:33:24;101417.15;;;7.28;84.49
51067;BME280;37112;45.892;-123.962;2024-01-07T07:35:35;101419.09;;;7.28;83.99
51067;BME280;37112;45.892;-123.962;2024-01-07T07:37:47;101419.15;;;7.26;82.81
51067;BME280;37112;45.892;-123.962;2024-01-07T07:39:58;101423.33;;;7.23;82.08
51067;BME280;37112;45.892;-123.962;2024-01-07T07:42:08;101420.44;;;7.29;82.72
51067;BME280;37112;45.892;-123.962;2024-01-07T07:44:18;101432.16;;;7.36;83.25
51067;BME280;37112;45.892;-123.962;2024-01-07T07:46:28;101435.53;;;7.43;83.26
51067;BME280;37112;45.892;-123.962;2024-01-07T07:48:38;101438.23;;;7.38;82.12
51067;BME280;37112;45.892;-123.962;2024-01-07T07:50:48;101431.36;;;7.34;82.02
51067;BME280;37112;45.892;-123.962;2024-01-07T07:52:59;101428.27;;;7.28;81.52
51067;BME280;37112;45.892;-123.962;2024-01-07T07:55:09;101438.04;;;7.22;81.70
51067;BME280;37112;45.892;-123.962;2024-01-07T07:57:19;101446.80;;;7.20;82.29
51067;BME280;37112;45.892;-123.962;2024-01-07T07:59:30;101444.20;;;7.14;82.18
51067;BME280;37112;45.892;-123.962;2024-01-07T08:01:40;101440.51;;;7.01;81.81
51067;BME280;37112;45.892;-123.962;2024-01-07T08:03:50;101436.05;;;6.93;82.83
51067;BME280;37112;45.892;-123.962;2024-01-07T08:06:00;101423.15;;;6.94;84.84
51067;BME280;37112;45.892;-123.962;2024-01-07T08:08:11;101420.77;;;7.05;87.61
51067;BME280;37112;45.892;-123.962;2024-01-07T08:10:21;101424.35;;;7.20;88.01
51067;BME280;37112;45.892;-123.962;2024-01-07T08:12:31;101426.63;;;7.33;87.52
51067;BME280;37112;45.892;-123.962;2024-01-07T08:14:41;101422.62;;;7.44;86.32
51067;BME280;37112;45.892;-123.962;2024-01-07T08:16:52;101424.21;;;7.56;86.90
51067;BME280;37112;45.892;-123.962;2024-01-07T08:19:02;101419.84;;;7.63;85.73
51067;BME280;37112;45.892;-123.962;2024-01-07T08:21:13;101414.97;;;7.70;85.89
51067;BME280;37112;45.892;-123.962;2024-01-07T08:23:23;101416.61;;;7.76;86.06
51067;BME280;37112;45.892;-123.962;2024-01-07T08:25:33;101419.44;;;7.80;85.77
51067;BME280;37112;45.892;-123.962;2024-01-07T08:27:44;101414.20;;;7.82;85.06
51067;BME280;37112;45.892;-123.962;2024-01-07T08:29:57;101418.24;;;7.83;84.98
51067;BME280;37112;45.892;-123.962;2024-01-07T08:32:07;101418.67;;;7.85;86.08
51067;BME280;37112;45.892;-123.962;2024-01-07T08:34:17;101409.79;;;7.87;86.69
51067;BME280;37112;45.892;-123.962;2024-01-07T08:36:27;101414.39;;;7.86;86.99
51067;BME280;37112;45.892;-123.962;2024-01-07T08:38:38;101401.86;;;7.86;86.65
51067;BME280;37112;45.892;-123.962;2024-01-07T08:40:48;101402.88;;;7.87;86.92
51067;BME280;37112;45.892;-123.962;2024-01-07T08:42:58;101411.72;;;7.91;87.66
51067;BME280;37112;45.892;-123.962;2024-01-07T08:45:09;101413.42;;;7.96;87.63
51067;BME280;37112;45.892;-123.962;2024-01-07T08:47:19;101417.61;;;8.01;86.95
51067;BME280;37112;45.892;-123.962;2024-01-07T08:49:30;101418.14;;;8.00;86.41
51067;BME280;37112;45.892;-123.962;2024-01-07T08:51:41;101420.55;;;7.99;84.10
51067;BME280;37112;45.892;-123.962;2024-01-07T08:53:51;101418.23;;;7.99;83.81
51067;BME280;37112;45.892;-123.962;2024-01-07T08:56:02;101427.17;;;8.04;85.31
51067;BME280;37112;45.892;-123.962;2024-01-07T08:58:12;101436.71;;;8.01;84.61
51067;BME280;37112;45.892;-123.962;2024-01-07T09:00:23;101434.95;;;7.89;85.80
51067;BME280;37112;45.892;-123.962;2024-01-07T09:02:35;101433.19;;;7.81;87.00
51067;BME280;37112;45.892;-123.962;2024-01-07T09:04:50;101436.14;;;7.74;86.44
51067;BME280;37112;45.892;-123.962;2024-01-07T09:07:01;101442.63;;;7.64;83.46
51067;BME280;37112;45.892;-123.962;2024-01-07T09:09:11;101442.84;;;7.59;83.44
51067;BME280;37112;45.892;-123.962;2024-01-07T09:11:22;101440.88;;;7.63;84.03
51067;BME280;37112;45.892;-123.962;2024-01-07T09:13:32;101447.73;;;7.68;83.38
51067;BME280;37112;45.892;-123.962;2024-01-07T09:15:43;101445.19;;;7.74;83.41
51067;BME280;37112;45.892;-123.962;2024-01-07T09:17:53;101442.33;;;7.78;83.56
51067;BME280;37112;45.892;-123.962;2024-01-07T09:20:04;101445.38;;;7.85;84.36
51067;BME280;37112;45.892;-123.962;2024-01-07T09:22:16;101445.36;;;7.90;84.26
51067;BME280;37112;45.892;-123.962;2024-01-07T09:24:26;101444.33;;;7.93;84.34
51067;BME280;37112;45.892;-123.962;2024-01-07T09:26:37;101438.41;;;7.95;83.48
51067;BME280;37112;45.892;-123.962;2024-01-07T09:28:48;101432.08;;;7.94;82.75
51067;BME280;37112;45.892;-123.962;2024-01-07T09:30:58;101440.55;;;7.98;83.80
51067;BME280;37112;45.892;-123.962;2024-01-07T09:33:09;101456.59;;;7.99;84.08
51067;BME280;37112;45.892;-123.962;2024-01-07T09:35:19;101469.95;;;7.90;84.74
51067;BME280;37112;45.892;-123.962;2024-01-07T09:37:29;101474.48;;;7.71;84.43
51067;BME280;37112;45.892;-123.962;2024-01-07T09:39:42;101457.30;;;7.51;83.52
51067;BME280;37112;45.892;-123.962;2024-01-07T09:41:54;101459.85;;;7.37;84.10
51067;BME280;37112;45.892;-123.962;2024-01-07T09:44:05;101460.27;;;7.31;85.09
51067;BME280;37112;45.892;-123.962;2024-01-07T09:46:15;101460.92;;;7.28;85.07
51067;BME280;37112;45.892;-123.962;2024-01-07T09:48:25;101458.84;;;7.27;86.44
51067;BME280;37112;45.892;-123.962;2024-01-07T09:50:35;101470.16;;;7.35;88.41
51067;BME280;37112;45.892;-123.962;2024-01-07T09:52:46;101477.22;;;7.44;87.27
51067;BME280;37112;45.892;-123.962;2024-01-07T09:55:01;101466.09;;;7.48;85.00
51067;BME280;37112;45.892;-123.962;2024-01-07T09:57:12;101474.16;;;7.53;84.12
51067;BME280;37112;45.892;-123.962;2024-01-07T09:59:22;101474.23;;;7.60;84.42
51067;BME280;37112;45.892;-123.962;2024-01-07T10:01:33;101483.51;;;7.67;83.71
51067;BME280;37112;45.892;-123.962;2024-01-07T10:03:45;101489.40;;;7.73;83.78
51067;BME280;37112;45.892;-123.962;2024-01-07T10:05:55;101488.89;;;7.81;84.20
51067;BME280;37112;45.892;-123.962;2024-01-07T10:08:07;101492.52;;;7.87;84.70
51067;BME280;37112;45.892;-123.962;2024-01-07T10:10:18;101490.77;;;7.91;84.39
51067;BME280;37112;45.892;-123.962;2024-01-07T10:12:28;101490.22;;;7.95;85.09
51067;BME280;37112;45.892;-123.962;2024-01-07T10:14:39;101499.04;;;7.99;84.99
51067;BME280;37112;45.892;-123.962;2024-01-07T10:16:50;101493.83;;;8.01;84.38
51067;BME280;37112;45.892;-123.962;2024-01-07T10:19:00;101496.01;;;8.04;84.48
51067;BME280;37112;45.892;-123.962;2024-01-07T10:21:12;101494.12;;;8.10;85.26
51067;BME280;37112;45.892;-123.962;2024-01-07T10:23:22;101512.02;;;8.14;84.75
51067;BME280;37112;45.892;-123.962;2024-01-07T10:25:33;101523.16;;;8.06;83.57
51067;BME280;37112;45.892;-123.962;2024-01-07T10:27:43;101533.11;;;7.92;82.11
51067;BME280;37112;45.892;-123.962;2024-01-07T10:29:53;101543.27;;;7.74;79.96
51067;BME280;37112;45.892;-123.962;2024-01-07T10:32:04;101536.42;;;7.56;79.12
51067;BME280;37112;45.892;-123.962;2024-01-07T10:34:15;101537.95;;;7.50;79.01
51067;BME280;37112;45.892;-123.962;2024-01-07T10:36:45;101531.46;;;7.48;80.91
51067;BME280;37112;45.892;-123.962;2024-01-07T10:39:09;101526.63;;;7.50;82.72
51067;BME280;37112;45.892;-123.962;2024-01-07T10:41:40;101522.17;;;7.55;84.46
51067;BME280;37112;45.892;-123.962;2024-01-07T10:44:06;101515.33;;;7.63;86.11
51067;BME280;37112;45.892;-123.962;2024-01-07T10:46:37;101517.67;;;7.69;86.02
51067;BME280;37112;45.892;-123.962;2024-01-07T10:49:07;101515.20;;;7.74;85.67
51067;BME280;37112;45.892;-123.962;2024-01-07T10:51:26;101516.84;;;7.80;85.86
51067;BME280;37112;45.892;-123.962;2024-01-07T10:53:59;101517.86;;;7.90;84.97
51067;BME280;37112;45.892;-123.962;2024-01-07T10:56:39;101535.89;;;7.98;84.47
51067;BME280;37112;45.892;-123.962;2024-01-07T10:59:15;101539.13;;;7.97;82.45
51067;BME280;37112;45.892;-123.962;2024-01-07T11:01:45;101535.99;;;7.87;79.89
51067;BME280;37112;45.892;-123.962;2024-01-07T11:04:20;101532.86;;;7.82;78.03
51067;BME280;37112;45.892;-123.962;2024-01-07T11:07:23;101533.91;;;7.82;76.85
51067;BME280;37112;45.892;-123.962;2024-01-07T11:10:08;101539.45;;;7.85;77.99
51067;BME280;37112;45.892;-123.962;2024-01-07T11:12:39;101544.80;;;7.88;78.10
51067;BME280;37112;45.892;-123.962;2024-01-07T11:15:10;101548.64;;;7.93;79.35
51067;BME280;37112;45.892;-123.962;2024-01-07T11:20:28;101543.42;;;8.07;80.35
51067;BME280;37112;45.892;-123.962;2024-01-07T11:23:30;101546.80;;;8.15;81.67
51067;BME280;37112;45.892;-123.962;2024-01-07T11:26:02;101548.48;;;8.18;82.12
51067;BME280;37112;45.892;-123.962;2024-01-07T11:28:52;101553.40;;;8.18;82.99
51067;BME280;37112;45.892;-123.962;2024-01-07T11:31:45;101551.33;;;8.17;83.98
51067;BME280;37112;45.892;-123.962;2024-01-07T11:34:42;101549.73;;;8.17;84.33
51067;BME280;37112;45.892;-123.962;2024-01-07T11:37:29;101545.52;;;8.16;84.41
51067;BME280;37112;45.892;-123.962;2024-01-07T11:39:57;101541.17;;;8.15;84.34
51067;BME280;37112;45.892;-123.962;2024-01-07T11:42:27;101540.23;;;8.16;84.93
51067;BME280;37112;45.892;-123.962;2024-01-07T11:44:58;101539.27;;;8.18;85.20
51067;BME280;37112;45.892;-123.962;2024-01-07T11:47:34;101551.88;;;8.17;84.83
51067;BME280;37112;45.892;-123.962;2024-01-07T11:50:08;101563.04;;;8.07;82.72
51067;BME280;37112;45.892;-123.962;2024-01-07T11:52:39;101555.98;;;7.99;82.10
51067;BME280;37112;45.892;-123.962;2024-01-07T11:55:00;101560.35;;;7.92;80.33
51067;BME280;37112;45.892;-123.962;2024-01-07T11:57:32;101572.59;;;7.88;80.44
51067;BME280;37112;45.892;-123.962;2024-01-07T11:59:53;101580.27;;;7.86;80.64
51067;BME280;37112;45.892;-123.962;2024-01-07T12:02:12;101574.35;;;7.75;78.91
51067;BME280;37112;45.892;-123.962;2024-01-07T12:04:44;101580.50;;;7.67;79.20
51067;BME280;37112;45.892;-123.962;2024-01-07T12:07:15;101574.48;;;7.55;77.66
51067;BME280;37112;45.892;-123.962;2024-01-07T12:10:00;101575.64;;;7.48;77.73
51067;BME280;37112;45.892;-123.962;2024-01-07T12:12:33;101586.98;;;7.47;78.32
51067;BME280;37112;45.892;-123.962;2024-01-07T12:15:04;101600.45;;;7.51;80.19
51067;BME280;37112;45.892;-123.962;2024-01-07T12:17:29;101591.02;;;7.39;79.95
51067;BME280;37112;45.892;-123.962;2024-01-07T12:19:48;101580.89;;;7.28;80.28
51067;BME280;37112;45.892;-123.962;2024-01-07T12:22:09;101580.67;;;7.20;80.58
51067;BME280;37112;45.892;-123.962;2024-01-07T12:24:41;101575.96;;;7.14;81.02
51067;BME280;37112;45.892;-123.962;2024-01-07T12:27:05;101573.17;;;7.13;82.29
51067;BME280;37112;45.892;-123.962;2024-01-07T12:29:36;101575.23;;;7.23;83.47
51067;BME280;37112;45.892;-123.962;2024-01-07T12:32:12;101572.11;;;7.35;83.27
51067;BME280;37112;45.892;-123.962;2024-01-07T12:34:42;101569.29;;;7.48;82.63
51067;BME280;37112;45.892;-123.962;2024-01-07T12:37:16;101567.48;;;7.57;82.66
51067;BME280;37112;45.892;-123.962;2024-01-07T12:42:49;101555.81;;;7.66;78.16
51067;BME280;37112;45.892;-123.962;2024-01-07T12:45:14;101557.86;;;7.72;78.39
51067;BME280;37112;45.892;-123.962;2024-01-07T12:47:46;101561.04;;;7.76;78.09
51067;BME280;37112;45.892;-123.962;2024-01-07T12:50:17;101561.16;;;7.82;78.84
51067;BME280;37112;45.892;-123.962;2024-01-07T12:53:21;101558.61;;;7.88;79.40
51067;BME280;37112;45.892;-123.962;2024-01-07T12:55:44;101557.88;;;7.89;79.77
51067;BME280;37112;45.892;-123.962;2024-01-07T12:58:21;101559.85;;;7.92;80.45
51067;BME280;37112;45.892;-123.962;2024-01-07T13:01:11;101563.17;;;7.97;81.87
51067;BME280;37112;45.892;-123.962;2024-01-07T13:03:42;101566.30;;;8.02;80.94
51067;BME280;37112;45.892;-123.962;2024-01-07T13:06:13;101568.09;;;8.02;79.94
51067;BME280;37112;45.892;-123.962;2024-01-07T13:09:04;101567.00;;;8.02;79.55
51067;BME280;37112;45.892;-123.962;2024-01-07T13:11:56;101570.95;;;8.05;79.37
51067;BME280;37112;45.892;-123.962;2024-01-07T13:14:27;101564.80;;;8.04;78.36
51067;BME280;37112;45.892;-123.962;2024-01-07T13:16:58;101572.42;;;8.04;77.94
51067;BME280;37112;45.892;-123.962;2024-01-07T13:19:31;101575.02;;;8.05;77.95
51067;BME280;37112;45.892;-123.962;2024-01-07T13:22:03;101576.69;;;8.07;78.27
51067;BME280;37112;45.892;-123.962;2024-01-07T13:24:37;101578.73;;;8.13;79.38
51067;BME280;37112;45.892;-123.962;2024-01-07T13:27:09;101583.05;;;8.12;77.71
51067;BME280;37112;45.892;-123.962;2024-01-07T13:29:32;101588.82;;;8.08;77.33
51067;BME280;37112;45.892;-123.962;2024-01-07T13:32:03;101581.52;;;8.10;78.61
51067;BME280;37112;45.892;-123.962;2024-01-07T13:37:36;101584.27;;;8.08;78.93
51067;BME280;37112;45.892;-123.962;2024-01-07T13:40:09;101585.23;;;8.02;78.12
51067;BME280;37112;45.892;-123.962;2024-01-07T13:42:40;101587.86;;;7.94;77.79
51067;BME280;37112;45.892;-123.962;2024-01-07T13:45:35;101585.06;;;7.85;77.23
51067;BME280;37112;45.892;-123.962;2024-01-07T13:48:07;101589.75;;;7.79;77.13
51067;BME280;37112;45.892;-123.962;2024-01-07T13:50:48;101586.96;;;7.74;77.27
51067;BME280;37112;45.892;-123.962;2024-01-07T13:53:32;101585.20;;;7.69;77.26
51067;BME280;37112;45.892;-123.962;2024-01-07T13:55:55;101585.67;;;7.67;77.38
51067;BME280;37112;45.892;-123.962;2024-01-07T13:58:14;101584.37;;;7.64;77.48
51067;BME280;37112;45.892;-123.962;2024-01-07T14:00:38;101581.96;;;7.63;77.64
51067;BME280;37112;45.892;-123.962;2024-01-07T14:03:10;101584.63;;;7.62;77.85
51067;BME280;37112;45.892;-123.962;2024-01-07T14:05:43;101578.79;;;7.62;78.31
51067;BME280;37112;45.892;-123.962;2024-01-07T14:08:14;101590.27;;;7.67;79.50
51067;BME280;37112;45.892;-123.962;2024-01-07T14:10:51;101594.30;;;7.75;81.01
51067;BME280;37112;45.892;-123.962;2024-01-07T14:13:23;101601.32;;;7.77;80.32
51067;BME280;37112;45.892;-123.962;2024-01-07T14:15:58;101606.63;;;7.76;79.84
51067;BME280;37112;45.892;-123.962;2024-01-07T14:18:21;101610.23;;;7.75;79.66
51067;BME280;37112;45.892;-123.962;2024-01-07T14:21:06;101612.48;;;7.72;79.59
51067;BME280;37112;45.892;-123.962;2024-01-07T14:23:38;101610.54;;;7.68;79.56
51067;BME280;37112;45.892;-123.962;2024-01-07T14:26:10;101611.54;;;7.65;79.54
51067;BME280;37112;45.892;-123.962;2024-01-07T14:28:40;101613.41;;;7.63;79.52
51067;BME280;37112;45.892;-123.962;2024-01-07T14:31:13;101611.11;;;7.63;79.66
51067;BME280;37112;45.892;-123.962;2024-01-07T14:33:36;101608.80;;;7.63;80.14
51067;BME280;37112;45.892;-123.962;2024-01-07T14:36:08;101618.06;;;7.69;80.29
51067;BME280;37112;45.892;-123.962;2024-01-07T14:38:41;101618.39;;;7.79;79.98
51067;BME280;37112;45.892;-123.962;2024-01-07T14:41:13;101619.08;;;7.88;79.95
51067;BME280;37112;45.892;-123.962;2024-01-07T14:43:43;101618.09;;;7.94;80.40
51067;BME280;37112;45.892;-123.962;2024-01-07T14:46:14;101619.00;;;7.98;80.21
51067;BME280;37112;45.892;-123.962;2024-01-07T14:51:17;101625.33;;;7.99;78.95
51067;BME280;37112;45.892;-123.962;2024-01-07T14:54:11;101637.33;;;7.95;78.86
51067;BME280;37112;45.892;-123.962;2024-01-07T14:56:46;101638.15;;;7.93;80.15
51067;BME280;37112;45.892;-123.962;2024-01-07T14:59:16;101639.14;;;7.90;80.49
51067;BME280;37112;45.892;-123.962;2024-01-07T15:02:14;101642.42;;;7.88;80.80
51067;BME280;37112;45.892;-123.962;2024-01-07T15:04:48;101648.50;;;7.86;80.47
51067;BME280;37112;45.892;-123.962;2024-01-07T15:07:20;101651.74;;;7.85;80.29
51067;BME280;37112;45.892;-123.962;2024-01-07T15:10:04;101654.48;;;7.78;79.99
51067;BME280;37112;45.892;-123.962;2024-01-07T15:12:23;101653.90;;;7.71;79.83
51067;BME280;37112;45.892;-123.962;2024-01-07T15:14:57;101652.52;;;7.66;79.86
51067;BME280;37112;45.892;-123.962;2024-01-07T15:17:29;101654.07;;;7.63;79.72
51067;BME280;37112;45.892;-123.962;2024-01-07T15:20:01;101652.39;;;7.56;79.57
51067;BME280;37112;45.892;-123.962;2024-01-07T15:22:32;101651.67;;;7.51;79.93
51067;BME280;37112;45.892;-123.962;2024-01-07T15:25:24;101647.49;;;7.45;80.07
51067;BME280;37112;45.892;-123.962;2024-01-07T15:28:25;101642.96;;;7.53;80.84
51067;BME280;37112;45.892;-123.962;2024-01-07T15:31:00;101632.89;;;7.62;81.45
51067;BME280;37112;45.892;-123.962;2024-01-07T15:33:20;101638.35;;;7.67;81.17